Time;durP1;ratioP1;P1;durP2;ratioP2;P2;SDS_P1;SDS_P2;PMS_P1;PMS_P2;Temp;Humidity;BMP_temperature;BMP_pressure;BME280_temperature;BME280_humidity;BME280_pressure;Samples;Min_cycle;Max_cycle;Signal;HPM_P1;HPM_P2
2022/09/19 00:00:30;;;;;;;;;;;;;;;21.60;55.67;98587.47;7315237;19;129110;-38
2022/09/19 00:02:56;;;;;;;;;;;;;;;21.60;56.40;98591.91;7313827;19;129718;-39
2022/09/19 00:05:21;;;;;;;;;;;;;;;21.61;56.07;98594.34;7315736;19;130971;-37
2022/09/19 00:07:47;;;;;;;;;;;;;;;21.56;55.90;98591.41;7314772;19;129076;-39
2022/09/19 00:10:12;;;;;;;;;;;;;;;21.46;55.66;98569.00;7314773;19;129352;-41
2022/09/19 00:12:38;;;;;;;;;;;;;;;21.59;55.58;98590.25;7315083;19;129395;-37
2022/09/19 00:15:03;;;;;;;;;;;;;;;21.61;55.81;98583.88;7312985;19;129521;-37
2022/09/19 00:17:29;;;;;;;;;;;;;;;21.55;56.34;98579.28;7314332;19;129226;-37
2022/09/19 00:19:54;;;;;;;;;;;;;;;21.63;56.33;98594.19;7315485;19;130506;-37
2022/09/19 00:22:19;;;;;;;;;;;;;;;21.63;56.56;98595.00;7312671;19;130837;-37
2022/09/19 00:24:49;;;;;;;;;;;;;;;21.62;55.91;98595.16;7315848;19;130059;-37
2022/09/19 00:27:16;;;;;;;;;;;;;;;21.62;55.68;98585.50;7313835;19;128702;-38
2022/09/19 00:29:42;;;;;;;;;;;;;;;21.62;55.84;98590.75;7314357;19;129434;-38
2022/09/19 00:32:11;;;;;;;;;;;;;;;21.54;55.92;98582.91;7308991;19;129753;-37
2022/09/19 00:34:37;;;;;;;;;;;;;;;21.64;56.58;98590.56;7316659;19;130053;-37
2022/09/19 00:37:02;;;;;;;;;;;;;;;21.62;56.35;98580.28;7315165;19;129420;-37
2022/09/19 00:39:28;;;;;;;;;;;;;;;21.64;56.32;98582.72;7315039;19;129745;-37
2022/09/19 00:41:53;;;;;;;;;;;;;;;21.64;56.23;98578.31;7312562;19;129818;-37
2022/09/19 00:44:21;;;;;;;;;;;;;;;21.61;56.27;98568.19;7310259;19;129151;-37
2022/09/19 00:46:48;;;;;;;;;;;;;;;21.62;55.78;98575.06;7314479;19;129527;-37
2022/09/19 00:49:13;;;;;;;;;;;;;;;21.58;56.01;98576.38;7308700;19;129731;-37
2022/09/19 00:51:49;;;;;;;;;;;;;;;21.64;56.23;98578.31;7311286;19;130357;-37
2022/09/19 00:54:18;;;;;;;;;;;;;;;21.62;56.05;98582.91;7315234;19;130618;-37
2022/09/19 00:56:48;;;;;;;;;;;;;;;21.62;56.43;98582.91;7309684;19;129414;-37
2022/09/19 00:59:14;;;;;;;;;;;;;;;21.60;56.69;98571.78;7310527;19;131458;-37
2022/09/19 01:01:40;;;;;;;;;;;;;;;21.64;56.67;98577.50;7311136;19;130555;-37
2022/09/19 01:04:18;;;;;;;;;;;;;;;21.63;56.13;98587.16;7311739;19;130559;-36
2022/09/19 01:06:56;;;;;;;;;;;;;;;21.64;56.49;98583.56;7311354;19;129131;-37
2022/09/19 01:09:40;;;;;;;;;;;;;;;21.64;56.06;98574.88;7313204;19;129900;-37
2022/09/19 01:12:17;;;;;;;;;;;;;;;21.64;56.40;98580.94;7309390;19;129788;-37
2022/09/19 01:14:43;;;;;;;;;;;;;;;21.64;56.57;98580.13;7311732;19;129492;-37
2022/09/19 01:17:12;;;;;;;;;;;;;;;21.62;56.42;98588.13;7311562;19;129362;-37
2022/09/19 01:19:37;;;;;;;;;;;;;;;21.62;56.25;98585.50;7313474;19;129098;-37
2022/09/19 01:22:11;;;;;;;;;;;;;;;21.65;55.91;98584.38;7307855;19;129462;-37
2022/09/19 01:24:40;;;;;;;;;;;;;;;21.56;56.65;98573.09;7311568;19;130075;-37
2022/09/19 01:27:05;;;;;;;;;;;;;;;21.66;56.47;98591.25;7312526;19;129478;-37
2022/09/19 01:29:50;;;;;;;;;;;;;;;21.64;56.50;98587.97;7311612;19;130154;-37
2022/09/19 01:32:18;;;;;;;;;;;;;;;21.66;56.13;98586.84;7312197;19;130079;-38
2022/09/19 01:34:50;;;;;;;;;;;;;;;21.62;56.02;98585.50;7312100;19;130928;-37
2022/09/19 01:37:17;;;;;;;;;;;;;;;21.62;56.39;98595.97;7310160;19;129716;-37
2022/09/19 01:39:46;;;;;;;;;;;;;;;21.64;56.47;98599.25;7310145;19;131995;-38
2022/09/19 01:42:12;;;;;;;;;;;;;;;21.64;56.17;98611.50;7307782;19;130438;-37
2022/09/19 01:44:37;;;;;;;;;;;;;;;21.65;56.12;98600.88;7310106;19;129342;-37
2022/09/19 01:47:09;;;;;;;;;;;;;;;21.67;56.12;98613.78;7308212;19;129286;-37
2022/09/19 01:49:46;;;;;;;;;;;;;;;21.67;56.68;98612.00;7309611;19;130726;-37
2022/09/19 01:52:14;;;;;;;;;;;;;;;21.66;56.23;98620.84;7304489;19;133260;-37
2022/09/19 01:54:58;;;;;;;;;;;;;;;21.66;56.42;98622.63;7310966;19;129239;-37
2022/09/19 01:57:31;;;;;;;;;;;;;;;21.65;56.12;98619.19;7308123;19;129127;-37
2022/09/19 01:59:59;;;;;;;;;;;;;;;21.64;55.79;98630.63;7308520;19;130380;-37
2022/09/19 02:02:25;;;;;;;;;;;;;;;21.65;56.02;98632.25;7308605;19;129778;-37
2022/09/19 02:05:09;;;;;;;;;;;;;;;21.66;56.31;98633.91;7309603;19;128897;-38
2022/09/19 02:07:45;;;;;;;;;;;;;;;21.66;56.53;98639.16;7309039;19;129518;-37
2022/09/19 02:10:16;;;;;;;;;;;;;;;21.66;56.46;98638.31;7312311;19;129732;-37
2022/09/19 02:12:42;;;;;;;;;;;;;;;21.56;56.61;98617.56;7312069;19;130417;-37
2022/09/19 02:15:10;;;;;;;;;;;;;;;21.68;55.96;98641.59;7312719;19;129120;-37
2022/09/19 02:17:44;;;;;;;;;;;;;;;21.64;56.00;98643.72;7310794;19;129025;-37
2022/09/19 02:20:16;;;;;;;;;;;;;;;21.65;56.79;98644.53;7311654;19;130126;-37
2022/09/19 02:22:46;;;;;;;;;;;;;;;21.65;56.53;98647.97;7308566;19;129372;-37
2022/09/19 02:25:14;;;;;;;;;;;;;;;21.65;56.73;98645.34;7312048;19;128918;-37
2022/09/19 02:27:43;;;;;;;;;;;;;;;21.65;56.60;98647.97;7310915;19;129091;-37
2022/09/19 02:30:10;;;;;;;;;;;;;;;21.65;56.10;98647.16;7308827;19;131021;-37
2022/09/19 02:32:47;;;;;;;;;;;;;;;21.64;56.40;98659.41;7310810;19;129713;-37
2022/09/19 02:35:13;;;;;;;;;;;;;;;21.68;56.29;98657.28;7311733;19;129025;-37
2022/09/19 02:37:46;;;;;;;;;;;;;;;21.69;56.65;98659.75;7309526;19;130188;-37
2022/09/19 02:40:22;;;;;;;;;;;;;;;21.66;56.46;98662.69;7310030;19;130957;-37
2022/09/19 02:42:48;;;;;;;;;;;;;;;21.63;56.05;98665.63;7307229;19;129685;-37
2022/09/19 02:45:17;;;;;;;;;;;;;;;21.62;56.35;98669.22;7310725;19;129616;-37
2022/09/19 02:48:08;;;;;;;;;;;;;;;21.64;56.06;98680.34;7308459;19;130156;-37
2022/09/19 02:50:39;;;;;;;;;;;;;;;21.67;56.05;98674.78;7307920;19;129944;-37
2022/09/19 02:53:09;;;;;;;;;;;;;;;21.67;56.75;98689.66;7308182;19;129992;-37
2022/09/19 02:55:39;;;;;;;;;;;;;;;21.68;56.68;98688.69;7313390;19;129660;-38
2022/09/19 02:58:04;;;;;;;;;;;;;;;21.66;56.60;98696.69;7316558;19;129118;-37
2022/09/19 03:00:32;;;;;;;;;;;;;;;21.63;56.26;98696.19;7316809;19;130143;-37
2022/09/19 03:04:11;;;;;;;;;;;;;;;21.57;56.12;98687.19;7313668;19;130236;-37
2022/09/19 03:05:51;;;;;;;;;;;;;;;21.65;56.36;98702.88;7318360;19;129707;-37
2022/09/19 03:08:17;;;;;;;;;;;;;;;21.66;56.46;98699.31;7316120;19;129713;-38
2022/09/19 03:10:46;;;;;;;;;;;;;;;21.66;56.60;98709.78;7316010;19;129541;-37
2022/09/19 03:13:12;;;;;;;;;;;;;;;21.65;56.92;98715.97;7317291;19;130878;-37
2022/09/19 03:15:37;;;;;;;;;;;;;;;21.65;56.37;98721.19;7316276;19;128851;-37
2022/09/19 03:18:08;;;;;;;;;;;;;;;21.64;56.36;98711.72;7315964;19;129179;-37
2022/09/19 03:20:38;;;;;;;;;;;;;;;21.63;56.74;98723.19;7316425;19;129019;-37
2022/09/19 03:23:04;;;;;;;;;;;;;;;21.63;56.21;98728.41;7315063;19;129925;-37
2022/09/19 03:25:30;;;;;;;;;;;;;;;21.65;56.55;98721.19;7316977;19;129790;-37
2022/09/19 03:27:56;;;;;;;;;;;;;;;21.62;56.83;98725.94;7314892;19;128946;-37
2022/09/19 03:30:21;;;;;;;;;;;;;;;21.65;56.22;98726.44;7315654;19;130114;-37
2022/09/19 03:32:46;;;;;;;;;;;;;;;21.64;56.90;98734.44;7315482;19;130786;-37
2022/09/19 03:35:14;;;;;;;;;;;;;;;21.68;56.20;98741.00;7316156;19;130496;-37
2022/09/19 03:37:39;;;;;;;;;;;;;;;21.66;56.14;98743.78;7317387;19;129445;-37
2022/09/19 03:40:05;;;;;;;;;;;;;;;21.69;56.34;98753.91;7316063;19;130197;-37
2022/09/19 03:42:35;;;;;;;;;;;;;;;21.68;56.77;98747.03;7313414;19;130180;-37
2022/09/19 03:45:01;;;;;;;;;;;;;;;21.66;55.95;98749.00;7313056;19;129702;-37
2022/09/19 03:47:27;;;;;;;;;;;;;;;21.65;56.91;98752.59;7315400;19;129819;-37
2022/09/19 03:49:52;;;;;;;;;;;;;;;21.66;56.54;98753.41;7315031;19;130706;-37
2022/09/19 03:52:18;;;;;;;;;;;;;;;21.58;56.58;98733.31;7314899;19;131163;-38
2022/09/19 03:54:44;;;;;;;;;;;;;;;21.65;56.79;98752.59;7315860;19;129519;-37
2022/09/19 03:57:10;;;;;;;;;;;;;;;21.65;56.56;98768.28;7314361;19;130843;-38
2022/09/19 03:59:39;;;;;;;;;;;;;;;21.61;56.75;98745.22;7313075;19;129543;-37
2022/09/19 04:02:06;;;;;;;;;;;;;;;21.56;56.54;98744.91;7308984;19;129262;-37
2022/09/19 04:04:32;;;;;;;;;;;;;;;21.71;56.91;98769.44;7313937;19;129479;-37
2022/09/19 04:06:57;;;;;;;;;;;;;;;21.69;56.25;98772.22;7312867;19;130199;-37
2022/09/19 04:09:22;;;;;;;;;;;;;;;21.71;56.82;98761.59;7315177;19;129851;-37
2022/09/19 04:11:47;;;;;;;;;;;;;;;21.66;56.23;98769.13;7311890;19;129846;-37
2022/09/19 04:14:15;;;;;;;;;;;;;;;21.66;56.14;98776.97;7316080;19;129255;-38
2022/09/19 04:16:40;;;;;;;;;;;;;;;21.72;56.33;98779.75;7314709;19;130318;-37
2022/09/19 04:19:09;;;;;;;;;;;;;;;21.71;56.82;98772.91;7314532;19;129580;-38
2022/09/19 04:21:34;;;;;;;;;;;;;;;21.61;56.16;98767.00;7313374;19;130571;-37
2022/09/19 04:24:00;;;;;;;;;;;;;;;21.71;57.17;98785.97;7315013;19;128862;-37
2022/09/19 04:26:25;;;;;;;;;;;;;;;21.71;56.06;98793.00;7315242;19;129678;-37
2022/09/19 04:28:50;;;;;;;;;;;;;;;21.70;56.23;98792.16;7315266;19;130274;-37
2022/09/19 04:31:16;;;;;;;;;;;;;;;21.70;56.80;98801.84;7305532;19;130177;-37
2022/09/19 04:33:41;;;;;;;;;;;;;;;21.71;56.76;98799.06;7315237;19;129343;-37
2022/09/19 04:36:07;;;;;;;;;;;;;;;21.71;56.28;98804.28;7309785;19;129061;-37
2022/09/19 04:38:33;;;;;;;;;;;;;;;21.72;56.71;98811.16;7315971;19;129501;-37
2022/09/19 04:40:59;;;;;;;;;;;;;;;21.64;56.38;98792.00;7309265;19;130998;-37
2022/09/19 04:43:26;;;;;;;;;;;;;;;21.72;56.58;98810.31;7311828;19;128907;-37
2022/09/19 04:45:53;;;;;;;;;;;;;;;21.61;56.56;98798.38;7314218;19;129228;-37
2022/09/19 04:48:19;;;;;;;;;;;;;;;21.70;56.27;98807.88;7314472;19;131064;-37
2022/09/19 04:50:45;;;;;;;;;;;;;;;21.69;55.88;98816.69;7307817;19;130262;-37
2022/09/19 04:53:13;;;;;;;;;;;;;;;21.71;56.52;98820.00;7313406;19;129543;-37
2022/09/19 04:55:39;;;;;;;;;;;;;;;21.69;56.29;98821.94;7314128;19;129250;-37
2022/09/19 04:58:04;;;;;;;;;;;;;;;21.66;56.05;98813.59;7313962;19;130143;-37
2022/09/19 05:00:39;;;;;;;;;;;;;;;21.66;56.01;98819.66;7311373;19;130319;-37
2022/09/19 05:03:07;;;;;;;;;;;;;;;21.68;56.67;98815.03;7310503;19;130484;-37
2022/09/19 05:05:33;;;;;;;;;;;;;;;21.68;56.50;98824.72;7311560;19;129736;-37
2022/09/19 05:07:59;;;;;;;;;;;;;;;21.68;55.91;98824.72;7312221;19;129398;-37
2022/09/19 05:10:24;;;;;;;;;;;;;;;21.70;56.28;98823.56;7311636;19;129667;-37
2022/09/19 05:12:49;;;;;;;;;;;;;;;21.66;56.57;98822.25;7312773;19;129411;-37
2022/09/19 05:15:14;;;;;;;;;;;;;;;21.68;56.19;98835.97;7313307;19;129247;-37
2022/09/19 05:17:40;;;;;;;;;;;;;;;21.64;56.48;98832.06;7311232;19;129514;-37
2022/09/19 05:20:05;;;;;;;;;;;;;;;21.58;56.11;98827.47;7310020;19;130082;-37
2022/09/19 05:22:30;;;;;;;;;;;;;;;21.65;55.99;98835.50;7309018;19;129836;-37
2022/09/19 05:24:58;;;;;;;;;;;;;;;21.64;55.72;98847.75;7310074;19;129728;-38
2022/09/19 05:27:24;;;;;;;;;;;;;;;21.67;56.69;98842.19;7307715;19;131314;-37
2022/09/19 05:29:50;;;;;;;;;;;;;;;21.51;55.59;98850.00;7310603;19;130413;-37
2022/09/19 05:32:15;;;;;;;;;;;;;;;21.52;56.13;98853.41;7302719;19;129132;-37
2022/09/19 05:34:41;;;;;;;;;;;;;;;21.54;56.88;98844.44;7308603;19;128972;-38
2022/09/19 05:37:06;;;;;;;;;;;;;;;21.60;56.87;98864.72;7309455;19;130034;-37
2022/09/19 05:39:31;;;;;;;;;;;;;;;21.56;56.14;98852.97;7312926;19;130093;-38
2022/09/19 05:41:58;;;;;;;;;;;;;;;21.64;55.99;98866.06;7308004;19;128915;-37
2022/09/19 05:44:24;;;;;;;;;;;;;;;21.65;56.59;98872.13;7311786;19;129716;-37
2022/09/19 05:46:51;;;;;;;;;;;;;;;21.66;56.19;98871.13;7310804;19;131010;-37
2022/09/19 05:49:16;;;;;;;;;;;;;;;21.62;56.29;98865.41;7309102;19;130369;-37
2022/09/19 05:51:41;;;;;;;;;;;;;;;21.66;56.58;98871.13;7310038;19;129047;-37
2022/09/19 05:54:06;;;;;;;;;;;;;;;21.65;56.23;98872.13;7311010;19;129231;-37
2022/09/19 05:56:32;;;;;;;;;;;;;;;21.65;56.72;98875.53;7311170;19;130362;-37
2022/09/19 05:58:57;;;;;;;;;;;;;;;21.56;56.11;98863.41;7308902;19;130002;-37
2022/09/19 06:01:22;;;;;;;;;;;;;;;21.66;56.37;98874.59;7309129;19;129486;-38
2022/09/19 06:03:48;;;;;;;;;;;;;;;21.66;56.02;98878.97;7309547;19;128814;-37
2022/09/19 06:06:14;;;;;;;;;;;;;;;21.61;56.87;98876.03;7309026;19;130066;-37
2022/09/19 06:08:40;;;;;;;;;;;;;;;21.63;56.06;98880.13;7306963;19;129243;-37
2022/09/19 06:11:06;;;;;;;;;;;;;;;21.65;56.05;98882.59;7307436;19;129198;-37
2022/09/19 06:16:32;;;;;;;;;;;;;;;21.63;56.06;98880.13;7305072;19;129966;-36
2022/09/19 06:18:57;;;;;;;;;;;;;;;21.65;56.44;98886.00;7308143;19;130549;-37
2022/09/19 06:21:23;;;;;;;;;;;;;;;21.70;56.02;98886.34;7304751;19;129878;-37
2022/09/19 06:23:49;;;;;;;;;;;;;;;21.66;55.87;98882.44;7309183;19;130333;-38
2022/09/19 06:26:15;;;;;;;;;;;;;;;21.70;56.00;98881.13;7307771;19;129776;-37
2022/09/19 06:28:40;;;;;;;;;;;;;;;21.71;55.76;98893.25;7306402;19;131587;-37
2022/09/19 06:31:07;;;;;;;;;;;;;;;21.71;55.38;98892.41;7309041;19;130847;-37
2022/09/19 06:33:32;;;;;;;;;;;;;;;21.67;56.28;98896.31;7309386;19;129513;-38
2022/09/19 06:35:59;;;;;;;;;;;;;;;21.65;55.86;98893.84;7308183;19;129868;-37
2022/09/19 06:38:24;;;;;;;;;;;;;;;21.64;55.85;98897.44;7303729;19;131887;-37
2022/09/19 06:40:50;;;;;;;;;;;;;;;21.62;55.64;98899.41;7306830;19;129871;-38
2022/09/19 06:43:15;;;;;;;;;;;;;;;21.61;55.95;98908.25;7307566;19;130506;-37
2022/09/19 06:45:41;;;;;;;;;;;;;;;21.60;56.01;98901.34;7311265;19;129057;-37
2022/09/19 06:48:08;;;;;;;;;;;;;;;21.51;55.75;98886.59;7307376;19;131452;-37
2022/09/19 06:50:33;;;;;;;;;;;;;;;21.63;56.09;98910.69;7308979;19;129473;-37
2022/09/19 06:52:59;;;;;;;;;;;;;;;21.61;55.78;98916.09;7308184;19;131353;-38
2022/09/19 06:55:25;;;;;;;;;;;;;;;21.64;55.59;98918.38;7309744;19;129481;-37
2022/09/19 06:57:58;;;;;;;;;;;;;;;21.64;55.65;98923.63;7306795;19;129755;-37
2022/09/19 07:00:24;;;;;;;;;;;;;;;21.61;55.59;98933.56;7306061;19;129342;-37
2022/09/19 07:02:50;;;;;;;;;;;;;;;21.62;55.42;98927.34;7305484;19;130385;-37
2022/09/19 07:05:16;;;;;;;;;;;;;;;21.57;56.31;98938.28;7309828;19;129534;-37
2022/09/19 07:07:41;;;;;;;;;;;;;;;21.56;55.41;98936.66;7308125;19;129389;-37
2022/09/19 07:10:07;;;;;;;;;;;;;;;21.61;55.66;98933.56;7305973;19;131064;-37
2022/09/19 07:12:32;;;;;;;;;;;;;;;21.59;56.05;98932.91;7307695;19;130244;-37
2022/09/19 07:14:57;;;;;;;;;;;;;;;21.59;55.44;98945.97;7306958;19;129212;-37
2022/09/19 07:17:22;;;;;;;;;;;;;;;21.61;55.55;98949.25;7305682;19;131481;-37
2022/09/19 07:19:48;;;;;;;;;;;;;;;21.62;56.27;98954.34;7303597;19;129618;-38
2022/09/19 07:22:13;;;;;;;;;;;;;;;21.55;55.96;98955.13;7306016;19;130866;-37
2022/09/19 07:24:38;;;;;;;;;;;;;;;21.62;55.41;98956.94;7309403;19;130300;-37
2022/09/19 07:27:04;;;;;;;;;;;;;;;21.59;56.01;98972.13;7305986;19;130427;-37
2022/09/19 07:29:29;;;;;;;;;;;;;;;21.55;56.00;98966.38;7309092;19;129239;-37
2022/09/19 07:31:54;;;;;;;;;;;;;;;21.61;56.23;98976.25;7304313;19;129609;-38
2022/09/19 07:34:19;;;;;;;;;;;;;;;21.63;55.49;98982.16;7308261;19;130064;-37
2022/09/19 07:36:45;;;;;;;;;;;;;;;21.60;55.98;98979.81;7305764;19;130256;-37
2022/09/19 07:39:10;;;;;;;;;;;;;;;21.58;56.02;98992.25;7310314;19;128715;-37
2022/09/19 07:41:35;;;;;;;;;;;;;;;21.59;56.19;98987.81;7308242;19;129315;-37
2022/09/19 07:44:01;;;;;;;;;;;;;;;21.59;55.74;98993.88;7312103;19;130802;-38
2022/09/19 07:46:26;;;;;;;;;;;;;;;21.50;56.41;98978.31;7314288;19;130470;-37
2022/09/19 07:48:53;;;;;;;;;;;;;;;21.58;55.77;99000.09;7313497;19;129209;-38
2022/09/19 07:51:19;;;;;;;;;;;;;;;21.54;55.62;99000.53;7314480;19;129300;-37
2022/09/19 07:53:44;;;;;;;;;;;;;;;21.52;56.41;99002.47;7312984;19;131118;-38
2022/09/19 07:56:10;;;;;;;;;;;;;;;21.55;56.58;99010.84;7314140;19;129563;-37
2022/09/19 07:58:35;;;;;;;;;;;;;;;21.51;56.41;99006.91;7315360;19;129533;-38
2022/09/19 08:01:01;;;;;;;;;;;;;;;21.54;56.50;99013.63;7312828;19;129472;-37
2022/09/19 08:03:26;;;;;;;;;;;;;;;21.58;56.50;99017.59;7311290;19;130092;-37
2022/09/19 08:05:51;;;;;;;;;;;;;;;21.58;56.56;99018.41;7314682;19;129466;-37
2022/09/19 08:08:18;;;;;;;;;;;;;;;21.57;56.34;99021.97;7311965;19;130629;-38
2022/09/19 08:10:44;;;;;;;;;;;;;;;21.46;56.54;99006.56;7312250;19;129761;-38
2022/09/19 08:13:10;;;;;;;;;;;;;;;21.56;56.13;99030.81;7311824;19;131670;-38
2022/09/19 08:15:36;;;;;;;;;;;;;;;21.56;55.89;99030.81;7314599;19;130287;-37
2022/09/19 08:18:11;;;;;;;;;;;;;;;21.55;56.23;99034.38;7312096;19;128964;-37
2022/09/19 08:20:37;;;;;;;;;;;;;;;21.57;56.71;99047.31;7311277;19;129851;-37
2022/09/19 08:23:03;;;;;;;;;;;;;;;21.55;56.55;99039.63;7310317;19;130170;-38
2022/09/19 08:25:32;;;;;;;;;;;;;;;21.60;56.60;99052.25;7315631;19;130373;-37
2022/09/19 08:27:57;;;;;;;;;;;;;;;21.58;55.89;99059.44;7313093;19;129718;-37
2022/09/19 08:30:23;;;;;;;;;;;;;;;21.59;56.57;99061.91;7314505;19;128778;-37
2022/09/19 08:32:49;;;;;;;;;;;;;;;21.59;56.74;99072.34;7313149;19;129536;-37
2022/09/19 08:35:16;;;;;;;;;;;;;;;21.58;56.55;99075.13;7313362;19;129267;-37
2022/09/19 08:37:42;;;;;;;;;;;;;;;21.57;56.35;99073.47;7313171;19;131294;-37
2022/09/19 08:40:19;;;;;;;;;;;;;;;21.57;56.26;99078.69;7314578;19;129559;-37
2022/09/19 08:43:07;;;;;;;;;;;;;;;21.50;55.95;99083.72;7312968;19;130907;-38
2022/09/19 08:45:36;;;;;;;;;;;;;;;21.51;56.59;99088.00;7313439;19;129418;-38
2022/09/19 08:48:04;;;;;;;;;;;;;;;21.42;56.31;99075.81;7313038;19;129386;-37
2022/09/19 08:50:31;;;;;;;;;;;;;;;21.53;56.33;99091.28;7314578;19;129072;-37
2022/09/19 08:52:58;;;;;;;;;;;;;;;21.54;56.16;99092.09;7308172;19;129448;-37
2022/09/19 08:55:24;;;;;;;;;;;;;;;21.55;56.33;99102.41;7312780;19;130581;-37
2022/09/19 08:57:52;;;;;;;;;;;;;;;21.54;56.63;99100.75;7312853;19;128955;-37
2022/09/19 09:00:22;;;;;;;;;;;;;;;21.55;56.99;99102.41;7314502;19;129937;-37
2022/09/19 09:02:47;;;;;;;;;;;;;;;21.55;56.89;99101.59;7312569;19;129195;-37
2022/09/19 09:05:20;;;;;;;;;;;;;;;21.57;56.52;99108.31;7315572;19;130344;-38
2022/09/19 09:07:57;;;;;;;;;;;;;;;21.55;56.28;99097.16;7310609;19;129097;-37
2022/09/19 09:10:22;;;;;;;;;;;;;;;21.58;56.75;99117.81;7313089;19;131015;-37
2022/09/19 09:12:53;;;;;;;;;;;;;;;21.58;56.65;99112.59;7310560;19;130858;-37
2022/09/19 09:15:28;;;;;;;;;;;;;;;21.57;56.44;99116.16;7312912;19;129210;-38
2022/09/19 09:17:56;;;;;;;;;;;;;;;21.55;56.62;99112.84;7311748;19;129731;-37
2022/09/19 09:20:29;;;;;;;;;;;;;;;21.55;56.43;99131.16;7311762;19;129061;-38
2022/09/19 09:23:03;;;;;;;;;;;;;;;21.56;56.47;99130.22;7309533;19;130529;-37
2022/09/19 09:25:31;;;;;;;;;;;;;;;21.56;56.95;99130.22;7312534;19;131229;-37
2022/09/19 09:28:06;;;;;;;;;;;;;;;21.59;56.49;99124.69;7312249;19;129081;-37
2022/09/19 09:30:35;;;;;;;;;;;;;;;21.54;56.22;99126.09;7313634;19;128911;-38
2022/09/19 09:33:14;;;;;;;;;;;;;;;21.55;56.73;99125.94;7311079;19;129409;-37
2022/09/19 09:35:47;;;;;;;;;;;;;;;21.57;56.62;99141.47;7312614;19;131240;-37
2022/09/19 09:38:21;;;;;;;;;;;;;;;21.60;56.79;99142.00;7312805;19;129185;-37
2022/09/19 09:43:46;;;;;;;;;;;;;;;21.51;56.29;99131.63;7310209;19;128976;-38
2022/09/19 09:46:14;;;;;;;;;;;;;;;21.50;56.32;99136.03;7311035;19;130108;-37
2022/09/19 09:48:40;;;;;;;;;;;;;;;21.56;56.47;99140.69;7312135;19;129075;-37
2022/09/19 09:51:21;;;;;;;;;;;;;;;21.55;56.66;99144.25;7311703;19;128989;-37
2022/09/19 09:54:05;;;;;;;;;;;;;;;21.56;57.12;99145.06;7311861;19;129965;-37
2022/09/19 09:56:49;;;;;;;;;;;;;;;21.58;57.07;99143.97;7311372;19;130370;-37
2022/09/19 10:05:20;;;;;;;;;;;;;;;21.56;56.32;99145.91;7309016;19;130756;-38
2022/09/19 10:07:45;;;;;;;;;;;;;;;21.55;56.62;99152.09;7311231;19;130210;-38
2022/09/19 10:10:15;;;;;;;;;;;;;;;21.54;56.63;99153.06;7308654;19;129808;-37
2022/09/19 10:12:46;;;;;;;;;;;;;;;21.56;57.11;99153.75;7310862;19;129206;-37
2022/09/19 10:15:18;;;;;;;;;;;;;;;21.56;56.76;99155.53;7311618;19;130467;-38
2022/09/19 10:17:46;;;;;;;;;;;;;;;21.56;56.61;99153.75;7311623;19;130524;-38
2022/09/19 10:20:20;;;;;;;;;;;;;;;21.54;56.98;99153.06;7311022;19;130225;-35
2022/09/19 10:22:45;;;;;;;;;;;;;;;21.55;57.09;99154.72;7307836;19;129130;-38
2022/09/19 10:25:14;;;;;;;;;;;;;;;21.53;57.12;99161.91;7312386;19;129447;-38
2022/09/19 10:27:41;;;;;;;;;;;;;;;21.56;57.06;99159.00;7309646;19;129303;-37
2022/09/19 10:30:10;;;;;;;;;;;;;;;21.49;57.04;99146.63;7310571;19;129268;-38
2022/09/19 10:32:39;;;;;;;;;;;;;;;21.55;56.64;99165.16;7311333;19;129645;-38
2022/09/19 10:35:27;;;;;;;;;;;;;;;21.56;57.00;99166.00;7311692;19;129142;-38
2022/09/19 10:37:53;;;;;;;;;;;;;;;21.58;56.77;99166.69;7311388;19;130164;-38
2022/09/19 10:40:18;;;;;;;;;;;;;;;21.56;57.39;99174.69;7311470;19;129024;-37
2022/09/19 10:42:44;;;;;;;;;;;;;;;21.56;57.20;99168.63;7309915;19;129542;-38
2022/09/19 10:45:15;;;;;;;;;;;;;;;21.59;57.31;99176.16;7309488;19;130177;-37
2022/09/19 10:47:41;;;;;;;;;;;;;;;21.59;56.94;99179.59;7310177;19;131041;-37
2022/09/19 10:50:12;;;;;;;;;;;;;;;21.61;56.82;99187.31;7311126;19;129314;-38
2022/09/19 10:52:40;;;;;;;;;;;;;;;21.60;56.49;99183.06;7309841;19;131123;-37
2022/09/19 10:55:09;;;;;;;;;;;;;;;21.51;56.86;99169.06;7311747;19;129190;-37
2022/09/19 10:58:07;;;;;;;;;;;;;;;21.60;57.16;99180.44;7309327;19;130667;-38
2022/09/19 11:00:32;;;;;;;;;;;;;;;21.60;57.13;99173.38;7306619;19;129195;-37
2022/09/19 11:02:59;;;;;;;;;;;;;;;21.61;57.22;99179.47;7310254;19;129225;-37
2022/09/19 11:05:26;;;;;;;;;;;;;;;21.59;57.10;99182.22;7311137;19;130152;-37
2022/09/19 11:07:56;;;;;;;;;;;;;;;21.61;57.28;99180.28;7309344;19;130622;-37
2022/09/19 11:10:34;;;;;;;;;;;;;;;21.59;56.79;99171.75;7308803;19;129604;-37
2022/09/19 11:13:25;;;;;;;;;;;;;;;21.56;56.80;99177.28;7308775;19;129802;-37
2022/09/19 11:15:56;;;;;;;;;;;;;;;21.59;57.17;99179.59;7307177;19;129996;-38
2022/09/19 11:18:31;;;;;;;;;;;;;;;21.57;56.67;99178.94;7315595;19;132709;-37
2022/09/19 11:21:05;;;;;;;;;;;;;;;21.46;57.30;99170.47;7315821;19;129595;-37
2022/09/19 11:23:33;;;;;;;;;;;;;;;21.59;57.21;99187.47;7316125;19;128937;-37
2022/09/19 11:26:08;;;;;;;;;;;;;;;21.60;57.04;99181.25;7316281;19;129300;-37
2022/09/19 11:28:44;;;;;;;;;;;;;;;21.62;56.77;99187.16;7314573;19;131523;-37
2022/09/19 11:31:21;;;;;;;;;;;;;;;21.58;56.80;99177.97;7316497;19;129181;-37
2022/09/19 11:34:00;;;;;;;;;;;;;;;21.57;56.33;99178.94;7315843;19;129300;-38
2022/09/19 11:36:28;;;;;;;;;;;;;;;21.54;56.56;99176.63;7316059;19;129150;-37
2022/09/19 11:39:10;;;;;;;;;;;;;;;21.55;57.38;99183.47;7315875;19;130459;-38
2022/09/19 11:41:56;;;;;;;;;;;;;;;21.58;57.29;99180.59;7315140;19;129033;-38
2022/09/19 11:44:32;;;;;;;;;;;;;;;21.61;57.38;99179.47;7313824;19;132458;-38
2022/09/19 11:47:02;;;;;;;;;;;;;;;21.51;56.85;99168.25;7313946;19;129685;-38
2022/09/19 11:49:51;;;;;;;;;;;;;;;21.57;56.99;99184.16;7316333;19;131151;-38
2022/09/19 11:52:26;;;;;;;;;;;;;;;21.57;57.46;99178.09;7311468;19;129921;-38
2022/09/19 11:55:02;;;;;;;;;;;;;;;21.54;57.26;99187.09;7315884;19;129498;-38
2022/09/19 11:57:43;;;;;;;;;;;;;;;21.56;56.91;99182.53;7316477;19;130990;-38
2022/09/19 12:00:19;;;;;;;;;;;;;;;21.57;57.46;99184.16;7316486;19;130425;-37
2022/09/19 12:03:03;;;;;;;;;;;;;;;21.54;57.43;99189.69;7314937;19;128912;-38
2022/09/19 12:05:28;;;;;;;;;;;;;;;21.55;57.36;99186.09;7314120;19;129223;-38
2022/09/19 12:08:26;;;;;;;;;;;;;;;21.56;57.29;99182.53;7314441;19;129654;-35
2022/09/19 12:10:56;;;;;;;;;;;;;;;21.52;57.38;99182.94;7313926;19;129383;-38
2022/09/19 12:13:24;;;;;;;;;;;;;;;21.42;57.54;99169.94;7311144;19;129338;-37
2022/09/19 12:15:53;;;;;;;;;;;;;;;21.54;57.54;99184.47;7311476;19;129515;-37
2022/09/19 12:18:23;;;;;;;;;;;;;;;21.51;56.95;99184.78;7313627;19;129374;-37
2022/09/19 12:20:50;;;;;;;;;;;;;;;21.50;57.80;99180.50;7312503;19;130423;-37
2022/09/19 12:26:08;;;;;;;;;;;;;;;21.50;57.13;99177.88;7313877;19;129406;-38
2022/09/19 12:28:38;;;;;;;;;;;;;;;21.53;57.64;99185.44;7312539;19;130737;-38
2022/09/19 12:31:05;;;;;;;;;;;;;;;21.55;57.26;99175.63;7310030;19;131271;-38
2022/09/19 12:33:36;;;;;;;;;;;;;;;21.54;57.64;99179.22;7311873;19;128853;-37
2022/09/19 12:36:07;;;;;;;;;;;;;;;21.53;57.49;99177.59;7315632;19;129869;-38
2022/09/19 12:38:37;;;;;;;;;;;;;;;21.54;57.64;99179.22;7314364;19;130787;-38
2022/09/19 12:41:08;;;;;;;;;;;;;;;21.50;57.32;99180.50;7313552;19;131408;-38
2022/09/19 12:43:49;;;;;;;;;;;;;;;21.56;57.70;99174.69;7313522;19;129799;-38
2022/09/19 12:46:27;;;;;;;;;;;;;;;21.46;57.25;99166.09;7314087;19;129014;-38
2022/09/19 12:49:02;;;;;;;;;;;;;;;21.53;57.55;99172.38;7315297;19;130484;-37
2022/09/19 12:51:34;;;;;;;;;;;;;;;21.51;58.05;99174.31;7311288;19;130106;-39
2022/09/19 12:54:09;;;;;;;;;;;;;;;21.52;57.37;99164.66;7314208;19;129301;-37
2022/09/19 12:56:48;;;;;;;;;;;;;;;21.56;57.45;99177.28;7314850;19;129499;-36
2022/09/19 12:59:17;;;;;;;;;;;;;;;21.51;57.36;99163.84;7313243;19;129159;-38